createdAt,value
2018-07-05T00:02:28.976Z,1.83
2018-07-05T00:05:09.194Z,1.60
2018-07-05T00:10:46.393Z,1.70
2018-07-05T00:13:26.675Z,1.90
2018-07-05T00:16:07.029Z,1.77
2018-07-05T00:18:48.504Z,1.77
2018-07-05T00:21:28.973Z,1.70
2018-07-05T00:24:03.035Z,1.90
2018-07-05T00:26:43.258Z,1.60
2018-07-05T00:29:23.542Z,1.70
2018-07-05T00:32:03.717Z,1.50
2018-07-05T00:34:44.014Z,1.57
2018-07-05T00:37:24.090Z,1.73
2018-07-05T00:40:04.581Z,1.53
2018-07-05T00:42:44.769Z,1.77
2018-07-05T00:45:25.009Z,1.60
2018-07-05T00:48:05.270Z,1.70
2018-07-05T00:50:45.465Z,1.50
2018-07-05T00:53:25.852Z,1.67
2018-07-05T00:56:06.038Z,1.83
2018-07-05T00:58:46.210Z,1.80
2018-07-05T01:01:26.388Z,1.80
2018-07-05T01:04:06.653Z,2.00
2018-07-05T01:06:46.869Z,1.90
2018-07-05T01:09:27.173Z,1.90
2018-07-05T01:12:07.357Z,1.90
2018-07-05T01:14:47.614Z,1.70
2018-07-05T01:17:27.690Z,1.90
2018-07-05T01:20:07.885Z,2.20
2018-07-05T01:22:48.157Z,2.10
2018-07-05T01:25:28.328Z,1.87
2018-07-05T01:28:08.646Z,2.37
2018-07-05T01:30:48.927Z,1.90
2018-07-05T01:33:29.252Z,1.97
2018-07-05T01:36:09.412Z,2.20
2018-07-05T01:38:49.697Z,2.40
2018-07-05T01:41:29.878Z,2.30
2018-07-05T01:44:10.176Z,2.10
2018-07-05T01:46:50.348Z,2.27
2018-07-05T01:49:30.525Z,2.20
2018-07-05T01:52:12.304Z,2.27
2018-07-05T01:54:53.468Z,2.20
2018-07-05T01:57:34.160Z,2.20
2018-07-05T02:00:14.388Z,1.90
2018-07-05T02:02:54.773Z,2.07
2018-07-05T02:05:28.852Z,2.20
2018-07-05T02:08:09.106Z,1.90
2018-07-05T02:10:49.252Z,1.70
2018-07-05T02:13:29.513Z,2.10
2018-07-05T02:16:09.858Z,2.00
2018-07-05T02:18:50.027Z,2.30
2018-07-05T02:21:30.182Z,2.00
2018-07-05T02:24:10.369Z,2.40
2018-07-05T02:26:44.576Z,1.80
2018-07-05T02:29:24.749Z,2.20
2018-07-05T02:32:04.896Z,2.20
2018-07-05T02:34:45.089Z,2.30
2018-07-05T02:37:30.800Z,2.63
2018-07-05T02:40:10.929Z,2.13
2018-07-05T02:42:51.190Z,2.40
2018-07-05T02:45:31.364Z,2.17
2018-07-05T02:48:11.725Z,2.57
2018-07-05T02:50:51.971Z,2.30
2018-07-05T02:53:32.282Z,2.80
2018-07-05T02:56:06.545Z,2.47
2018-07-05T02:58:46.532Z,2.50
2018-07-05T03:01:26.693Z,2.50
2018-07-05T03:04:01.016Z,2.27
2018-07-05T03:06:41.205Z,2.30
2018-07-05T03:09:21.502Z,2.77
2018-07-05T03:12:01.793Z,2.80
2018-07-05T03:14:42.155Z,2.70
2018-07-05T03:17:22.301Z,2.97
2018-07-05T03:20:02.622Z,2.93
2018-07-05T03:22:42.989Z,2.80
2018-07-05T03:25:23.164Z,2.60
2018-07-05T03:28:03.508Z,2.87
2018-07-05T03:30:43.784Z,2.40
2018-07-05T03:33:23.937Z,2.50
2018-07-05T03:36:04.384Z,2.47
2018-07-05T03:38:44.665Z,2.40
2018-07-05T03:41:24.838Z,2.33
2018-07-05T03:44:05.146Z,2.50
2018-07-05T03:46:45.518Z,2.43
2018-07-05T03:49:25.747Z,2.17
2018-07-05T03:52:05.906Z,2.03
2018-07-05T03:54:46.065Z,2.17
2018-07-05T03:57:26.277Z,2.07
2018-07-05T04:00:06.468Z,2.27
2018-07-05T04:02:46.726Z,1.93
2018-07-05T04:05:26.791Z,1.53
2018-07-05T04:08:07.084Z,2.10
2018-07-05T04:10:47.242Z,2.10
2018-07-05T04:13:27.296Z,1.80
2018-07-05T04:16:07.608Z,2.10
2018-07-05T04:18:47.755Z,1.93
2018-07-05T04:21:27.929Z,2.07
2018-07-05T04:24:08.315Z,1.70
2018-07-05T04:26:48.555Z,1.43
2018-07-05T04:29:28.839Z,1.60
2018-07-05T04:32:08.974Z,1.73
2018-07-05T04:34:49.341Z,1.40
2018-07-05T04:37:29.496Z,1.60
2018-07-05T04:40:09.654Z,1.90
2018-07-05T04:42:49.955Z,1.73
2018-07-05T04:45:30.240Z,2.00
2018-07-05T04:48:10.525Z,1.70
2018-07-05T04:50:50.855Z,1.30
2018-07-05T04:53:31.032Z,1.70
2018-07-05T04:56:11.325Z,1.80
2018-07-05T04:58:45.635Z,1.53
2018-07-05T05:01:25.870Z,1.80
2018-07-05T05:04:06.249Z,1.50
2018-07-05T05:06:46.537Z,1.77
2018-07-05T05:09:26.846Z,2.07
2018-07-05T05:12:07.066Z,1.97
2018-07-05T05:14:47.382Z,2.10
2018-07-05T05:17:27.576Z,2.00
2018-07-05T05:20:08.119Z,2.07
2018-07-05T05:22:48.605Z,1.60
2018-07-05T05:25:28.985Z,1.90
2018-07-05T05:28:09.297Z,1.87
2018-07-05T05:30:49.648Z,1.77
2018-07-05T05:33:29.565Z,1.50
2018-07-05T05:36:09.880Z,1.80
2018-07-05T05:38:50.335Z,2.10
2018-07-05T05:41:30.464Z,1.80
2018-07-05T05:44:10.968Z,1.80
2018-07-05T05:46:51.289Z,1.57
2018-07-05T05:49:31.504Z,1.97
2018-07-05T05:52:11.773Z,1.50
2018-07-05T05:54:51.960Z,1.63
2018-07-05T05:57:32.333Z,1.60
2018-07-05T06:00:12.619Z,1.70
2018-07-05T06:02:52.720Z,2.03
2018-07-05T06:05:33.139Z,1.40
2018-07-05T06:08:13.459Z,1.73
2018-07-05T06:10:47.733Z,1.80
2018-07-05T06:13:27.993Z,1.60
2018-07-05T06:16:08.282Z,1.70
2018-07-05T06:18:48.764Z,1.50
2018-07-05T06:21:29.113Z,1.80
2018-07-05T06:24:09.427Z,1.60
2018-07-05T06:26:49.733Z,1.93
2018-07-05T06:29:29.929Z,1.93
2018-07-05T06:32:10.346Z,1.90
2018-07-05T06:34:50.706Z,1.60
2018-07-05T06:37:25.014Z,1.93
2018-07-05T06:40:05.280Z,1.97
2018-07-05T06:42:45.433Z,2.00
2018-07-05T06:45:25.693Z,1.43
2018-07-05T06:48:06.020Z,1.90
2018-07-05T06:50:46.313Z,1.60
2018-07-05T06:53:26.465Z,1.70
2018-07-05T06:56:06.661Z,1.60
2018-07-05T06:58:46.988Z,1.50
2018-07-05T07:01:27.155Z,1.90
2018-07-05T07:04:07.467Z,1.47
2018-07-05T07:06:47.952Z,1.70
2018-07-05T07:09:28.296Z,1.60
2018-07-05T07:12:08.750Z,1.53
2018-07-05T07:14:49.121Z,1.40
2018-07-05T07:17:29.457Z,1.70
2018-07-05T07:20:09.678Z,1.30
2018-07-05T07:22:50.113Z,1.40
2018-07-05T07:25:24.356Z,1.17
2018-07-05T07:28:04.553Z,1.20
2018-07-05T07:30:44.849Z,1.20
2018-07-05T07:33:25.049Z,1.27
2018-07-05T07:36:05.353Z,1.37
2018-07-05T07:38:45.508Z,1.03
2018-07-05T07:41:25.765Z,1.20
2018-07-05T07:43:53.589Z,1.17
2018-07-05T07:46:21.402Z,1.37
2018-07-05T07:48:49.489Z,0.90
2018-07-05T07:51:17.385Z,0.60
2018-07-05T07:53:45.177Z,0.90
2018-07-05T07:56:12.985Z,0.80
2018-07-05T07:58:41.068Z,0.80
2018-07-05T08:01:09.125Z,0.70
2018-07-05T08:03:37.706Z,0.70
2018-07-05T08:06:05.668Z,0.80
2018-07-05T08:08:33.690Z,1.60
2018-07-05T08:11:01.505Z,0.80
2018-07-05T08:13:29.600Z,0.60
2018-07-05T08:15:57.342Z,0.80
2018-07-05T08:18:25.416Z,0.83
2018-07-05T08:20:53.153Z,0.70
2018-07-05T08:23:20.957Z,0.80
2018-07-05T08:25:48.785Z,0.80
2018-07-05T08:28:16.586Z,0.80
2018-07-05T08:30:44.828Z,0.80
2018-07-05T08:33:12.573Z,0.80
2018-07-05T08:35:40.395Z,0.70
2018-07-05T08:38:08.214Z,0.80
2018-07-05T08:40:36.105Z,0.77
2018-07-05T08:43:03.922Z,0.67
2018-07-05T08:45:31.742Z,0.60
2018-07-05T08:47:59.569Z,0.60
2018-07-05T08:50:27.397Z,0.90
2018-07-05T08:52:55.569Z,0.87
2018-07-05T08:55:23.310Z,0.67
2018-07-05T08:57:51.124Z,0.67
2018-07-05T09:00:18.950Z,0.60
2018-07-05T09:02:47.015Z,1.00
2018-07-05T09:05:14.764Z,1.00
2018-07-05T09:07:42.749Z,0.80
2018-07-05T09:10:10.574Z,0.97
2018-07-05T09:12:38.386Z,0.97
2018-07-05T09:15:06.199Z,0.60
2018-07-05T09:17:34.107Z,0.67
2018-07-05T09:20:01.837Z,0.63
2018-07-05T09:22:29.646Z,0.43
2018-07-05T09:24:57.467Z,0.63
2018-07-05T09:27:25.276Z,0.70
2018-07-05T09:29:53.116Z,0.70
2018-07-05T09:32:20.928Z,1.00
2018-07-05T09:34:48.745Z,0.70
2018-07-05T09:37:16.598Z,0.80
2018-07-05T09:39:44.724Z,1.00
2018-07-05T09:42:12.457Z,0.80
2018-07-05T09:44:40.275Z,0.80
2018-07-05T09:47:08.082Z,0.90
2018-07-05T09:49:35.904Z,0.90
2018-07-05T09:52:03.708Z,0.90
2018-07-05T09:54:31.557Z,1.20
2018-07-05T09:56:59.357Z,0.83
2018-07-05T09:59:27.168Z,0.93
2018-07-05T10:01:54.973Z,1.00
2018-07-05T10:04:22.789Z,0.80
2018-07-05T10:06:50.657Z,0.93
2018-07-05T10:09:18.474Z,0.90
2018-07-05T10:11:46.293Z,0.90
2018-07-05T10:14:14.101Z,1.00
2018-07-05T10:16:41.930Z,0.80
2018-07-05T10:19:09.754Z,1.10
2018-07-05T10:21:37.582Z,0.60
2018-07-05T10:24:05.404Z,0.60
2018-07-05T10:26:33.216Z,0.70
2018-07-05T10:29:13.369Z,0.80
2018-07-05T10:31:53.685Z,1.03
2018-07-05T10:34:21.501Z,0.80
2018-07-05T10:36:49.329Z,1.53
2018-07-05T10:39:17.393Z,0.80
2018-07-05T10:41:57.449Z,0.67
2018-07-05T10:44:31.721Z,0.80
2018-07-05T10:47:11.868Z,0.80
2018-07-05T10:49:52.021Z,0.90
2018-07-05T10:52:32.106Z,0.80
2018-07-05T10:55:12.291Z,1.33
2018-07-05T10:57:52.421Z,0.97
2018-07-05T11:00:32.610Z,0.90
2018-07-05T11:03:12.937Z,0.87
2018-07-05T11:05:53.226Z,1.30
2018-07-05T11:08:33.661Z,1.40
2018-07-05T11:11:13.798Z,1.20
2018-07-05T11:13:54.106Z,1.60
2018-07-05T11:16:34.454Z,1.40
2018-07-05T11:19:14.737Z,1.53
2018-07-05T11:21:55.046Z,1.90
2018-07-05T11:24:35.418Z,1.80
2018-07-05T11:27:15.873Z,1.50
2018-07-05T11:29:56.005Z,1.73
2018-07-05T11:32:36.208Z,1.70
2018-07-05T11:35:16.635Z,2.07
2018-07-05T11:37:56.805Z,2.23
2018-07-05T11:40:37.090Z,2.03
2018-07-05T11:43:17.421Z,1.93
2018-07-05T11:45:57.751Z,2.10
2018-07-05T11:48:37.782Z,2.00
2018-07-05T11:51:18.056Z,2.00
2018-07-05T11:53:58.375Z,1.83
2018-07-05T11:56:38.505Z,1.77
2018-07-05T11:59:19.077Z,1.93
2018-07-05T12:01:59.194Z,1.47
2018-07-05T12:04:39.350Z,1.57
2018-07-05T12:07:19.481Z,1.40
2018-07-05T12:09:59.681Z,1.77
2018-07-05T12:12:39.953Z,1.60
2018-07-05T12:15:14.269Z,1.50
2018-07-05T12:17:56.370Z,2.00
2018-07-05T12:20:37.072Z,1.93
2018-07-05T12:23:17.813Z,2.07
2018-07-05T12:25:57.981Z,1.90
2018-07-05T12:28:38.221Z,1.63
2018-07-05T12:31:18.574Z,1.40
2018-07-05T12:33:58.955Z,2.13
2018-07-05T12:36:39.246Z,1.50
2018-07-05T12:39:19.601Z,1.87
2018-07-05T12:41:59.840Z,1.80
2018-07-05T12:44:40.014Z,2.07
2018-07-05T12:47:20.309Z,2.17
2018-07-05T12:50:15.501Z,2.00
2018-07-05T12:52:55.632Z,1.70
2018-07-05T12:55:35.953Z,2.27
2018-07-05T12:58:16.345Z,1.77
2018-07-05T13:00:56.605Z,1.40
2018-07-05T13:03:36.925Z,1.20
2018-07-05T13:06:17.253Z,1.30
2018-07-05T13:08:57.262Z,1.40
2018-07-05T13:11:37.506Z,1.30
2018-07-05T13:14:11.881Z,0.93
2018-07-05T13:16:52.117Z,0.90
2018-07-05T13:19:32.309Z,1.03
2018-07-05T13:22:12.573Z,1.10
2018-07-05T13:24:52.905Z,0.70
2018-07-05T13:27:33.181Z,0.90
2018-07-05T13:30:13.473Z,0.93
2018-07-05T13:32:47.778Z,1.20
2018-07-05T13:35:28.051Z,0.80
2018-07-05T13:38:08.182Z,1.00
2018-07-05T13:40:48.393Z,0.97
2018-07-05T13:43:28.893Z,1.03
2018-07-05T13:46:09.118Z,1.20
2018-07-05T13:48:49.618Z,0.87
2018-07-05T13:51:30.128Z,0.90
2018-07-05T13:54:10.505Z,1.00
2018-07-05T13:56:50.854Z,1.20
2018-07-05T13:59:31.221Z,1.00
2018-07-05T14:02:11.427Z,1.00
2018-07-05T14:04:51.669Z,1.20
2018-07-05T14:07:32.001Z,1.20
2018-07-05T14:10:12.297Z,1.00
2018-07-05T14:12:52.609Z,1.23
2018-07-05T14:15:33.021Z,1.60
2018-07-05T14:18:13.238Z,1.30
2018-07-05T14:20:53.541Z,1.30
2018-07-05T14:23:33.665Z,1.20
2018-07-05T14:26:13.998Z,1.23
2018-07-05T14:28:54.413Z,1.43
2018-07-05T14:31:28.682Z,1.20
2018-07-05T14:34:08.897Z,1.07
2018-07-05T14:36:49.141Z,1.40
2018-07-05T14:39:29.294Z,1.40
2018-07-05T14:42:09.758Z,1.03
2018-07-05T14:44:50.147Z,1.70
2018-07-05T14:47:30.218Z,1.40
2018-07-05T14:50:10.846Z,1.23
2018-07-05T14:52:51.190Z,1.70
2018-07-05T14:55:31.524Z,1.60
2018-07-05T14:58:11.795Z,1.20
2018-07-05T15:00:52.077Z,1.80
2018-07-05T15:03:32.358Z,1.40
2018-07-05T15:06:12.558Z,1.73
2018-07-05T15:08:52.744Z,1.57
2018-07-05T15:11:32.996Z,1.63
2018-07-05T15:14:13.365Z,1.50
2018-07-05T15:16:53.736Z,1.40
2018-07-05T15:19:34.194Z,1.17
2018-07-05T15:22:08.427Z,1.10
2018-07-05T15:24:48.648Z,1.40
2018-07-05T15:27:28.760Z,1.23
2018-07-05T15:30:09.014Z,1.17
2018-07-05T15:32:49.206Z,1.40
2018-07-05T15:35:29.357Z,1.50
2018-07-05T15:38:09.689Z,1.40
2018-07-05T15:40:49.973Z,1.20
2018-07-05T15:43:30.289Z,1.40
2018-07-05T15:46:10.578Z,1.80
2018-07-05T15:48:50.758Z,1.80
2018-07-05T15:51:30.930Z,1.47
2018-07-05T15:54:11.285Z,1.10
2018-07-05T15:56:51.644Z,1.10
2018-07-05T15:59:32.010Z,1.17
2018-07-05T16:02:12.129Z,0.90
2018-07-05T16:04:52.421Z,1.20
2018-07-05T16:07:32.727Z,1.30
2018-07-05T16:10:12.818Z,1.23
2018-07-05T16:12:53.105Z,1.23
2018-07-05T16:15:33.206Z,1.57
2018-07-05T16:18:13.373Z,1.00
2018-07-05T16:20:53.597Z,0.97
2018-07-05T16:23:33.753Z,1.10
2018-07-05T16:26:14.065Z,1.27
2018-07-05T16:28:54.118Z,1.20
2018-07-05T16:31:34.286Z,1.10
2018-07-05T16:34:14.732Z,1.10
2018-07-05T16:36:54.930Z,1.37
2018-07-05T16:39:35.272Z,1.37
2018-07-05T16:42:15.524Z,1.10
2018-07-05T16:44:55.818Z,1.00
2018-07-05T16:47:36.136Z,1.30
2018-07-05T16:50:16.545Z,1.40
2018-07-05T16:52:56.694Z,1.30
2018-07-05T16:55:37.051Z,1.17
2018-07-05T16:58:17.664Z,1.30
2018-07-05T17:00:57.819Z,1.40
2018-07-05T17:03:38.007Z,1.10
2018-07-05T17:06:18.442Z,1.30
2018-07-05T17:08:58.617Z,2.23
2018-07-05T17:11:38.972Z,1.30
2018-07-05T17:14:19.383Z,1.20
2018-07-05T17:16:59.689Z,1.27
2018-07-05T17:19:39.829Z,1.30
2018-07-05T17:22:20.136Z,1.40
2018-07-05T17:25:00.332Z,1.30
2018-07-05T17:27:40.605Z,1.00
2018-07-05T17:30:20.813Z,1.40
2018-07-05T17:33:01.109Z,1.10
2018-07-05T17:35:41.249Z,1.40
2018-07-05T17:38:21.443Z,1.40
2018-07-05T17:41:01.894Z,1.37
2018-07-05T17:43:42.241Z,1.10
2018-07-05T17:46:22.501Z,1.40
2018-07-05T17:49:02.751Z,1.30
2018-07-05T17:51:42.950Z,1.30
2018-07-05T17:54:23.373Z,1.70
2018-07-05T17:57:03.537Z,1.20
2018-07-05T17:59:43.869Z,1.30
2018-07-05T18:02:24.165Z,1.00
2018-07-05T18:04:58.442Z,1.07
2018-07-05T18:07:38.744Z,1.40
2018-07-05T18:10:19.101Z,1.50
2018-07-05T18:12:53.441Z,1.10
2018-07-05T18:15:33.815Z,1.43
2018-07-05T18:18:14.156Z,1.00
2018-07-05T18:20:54.704Z,1.20
2018-07-05T18:23:34.749Z,2.10
2018-07-05T18:26:14.977Z,2.27
2018-07-05T18:28:55.389Z,2.57
2018-07-05T18:31:35.801Z,2.27
2018-07-05T18:34:16.065Z,2.40
2018-07-05T18:36:56.374Z,1.50
2018-07-05T18:39:36.697Z,2.17
2018-07-05T18:42:16.969Z,1.70
2018-07-05T18:44:51.425Z,2.23
2018-07-05T18:47:31.611Z,1.80
2018-07-05T18:50:11.794Z,1.30
2018-07-05T18:52:52.094Z,1.70
2018-07-05T18:55:32.387Z,1.77
2018-07-05T18:58:12.574Z,1.93
2018-07-05T19:00:52.742Z,1.80
2018-07-05T19:03:32.798Z,2.00
2018-07-05T19:06:13.117Z,1.70
2018-07-05T19:08:53.385Z,1.70
2018-07-05T19:11:33.805Z,1.30
2018-07-05T19:14:14.094Z,1.40
2018-07-05T19:16:54.315Z,1.40
2018-07-05T19:19:34.669Z,1.30
2018-07-05T19:22:14.886Z,1.63
2018-07-05T19:24:55.157Z,1.40
2018-07-05T19:27:35.493Z,1.20
2018-07-05T19:30:15.945Z,1.23
2018-07-05T19:32:56.172Z,1.00
2018-07-05T19:35:36.390Z,1.20
2018-07-05T19:38:16.731Z,1.47
2018-07-05T19:40:56.898Z,1.13
2018-07-05T19:43:37.345Z,1.23
2018-07-05T19:46:17.687Z,1.40
2018-07-05T19:48:57.883Z,1.23
2018-07-05T19:51:38.246Z,1.10
2018-07-05T19:54:18.630Z,1.20
2018-07-05T19:56:58.788Z,1.10
2018-07-05T19:59:39.102Z,1.10
2018-07-05T20:02:19.241Z,1.10
2018-07-05T20:04:59.508Z,1.40
2018-07-05T20:07:39.741Z,1.37
2018-07-05T20:10:20.043Z,1.73
2018-07-05T20:13:00.437Z,1.70
2018-07-05T20:15:40.854Z,1.70
2018-07-05T20:18:21.204Z,1.30
2018-07-05T20:20:55.352Z,1.60
2018-07-05T20:23:35.637Z,1.40
2018-07-05T20:26:16.041Z,1.30
2018-07-05T20:28:56.273Z,1.33
2018-07-05T20:31:36.449Z,1.50
2018-07-05T20:34:16.880Z,1.47
2018-07-05T20:36:56.913Z,1.40
2018-07-05T20:39:37.010Z,1.67
2018-07-05T20:42:17.261Z,1.60
2018-07-05T20:44:57.477Z,1.50
2018-07-05T20:47:37.898Z,1.90
2018-07-05T20:50:12.093Z,1.70
2018-07-05T20:52:52.373Z,1.40
2018-07-05T20:55:32.953Z,1.57
2018-07-05T20:58:13.157Z,1.57
2018-07-05T21:00:53.437Z,1.80
2018-07-05T21:03:33.690Z,1.80
2018-07-05T21:06:13.889Z,1.80
2018-07-05T21:08:53.924Z,1.33
2018-07-05T21:11:34.178Z,1.73
2018-07-05T21:14:08.445Z,1.40
2018-07-05T21:16:48.509Z,1.40
2018-07-05T21:19:28.953Z,1.50
2018-07-05T21:22:09.331Z,1.40
2018-07-05T21:24:49.491Z,1.23
2018-07-05T21:27:29.688Z,1.13
2018-07-05T21:30:09.873Z,1.40
2018-07-05T21:32:50.026Z,1.00
2018-07-05T21:35:30.349Z,1.20
2018-07-05T21:38:10.697Z,1.10
2018-07-05T21:40:50.809Z,1.33
2018-07-05T21:43:31.110Z,1.33
2018-07-05T21:46:05.324Z,1.30
2018-07-05T21:48:39.369Z,1.40
2018-07-05T21:51:19.606Z,1.50
2018-07-05T21:53:53.845Z,1.90
2018-07-05T21:56:34.070Z,1.80
2018-07-05T21:59:14.401Z,1.90
2018-07-05T22:01:54.594Z,2.50
2018-07-05T22:04:34.849Z,2.00
2018-07-05T22:07:14.942Z,2.00
2018-07-05T22:09:55.243Z,2.13
2018-07-05T22:12:35.633Z,2.47
2018-07-05T22:15:15.840Z,2.20
2018-07-05T22:18:01.510Z,2.10
2018-07-05T22:20:47.232Z,2.13
2018-07-05T22:23:32.980Z,2.10
2018-07-05T22:26:18.888Z,2.90
2018-07-05T22:29:04.786Z,2.47
2018-07-05T22:31:49.417Z,2.83
2018-07-05T22:34:29.621Z,3.07
2018-07-05T22:37:09.849Z,2.80
2018-07-05T22:39:49.978Z,3.07
2018-07-05T22:42:30.281Z,3.20
2018-07-05T22:45:10.405Z,3.70
2018-07-05T22:47:50.591Z,2.77
2018-07-05T22:50:30.859Z,3.07
2018-07-05T22:53:11.190Z,2.70
2018-07-05T22:55:51.679Z,3.17
2018-07-05T22:58:31.801Z,3.30
2018-07-05T23:01:12.093Z,2.57
2018-07-05T23:03:52.421Z,3.60
2018-07-05T23:06:32.646Z,3.10
2018-07-05T23:09:12.982Z,3.47
2018-07-05T23:11:53.537Z,3.03
2018-07-05T23:14:33.688Z,3.43
2018-07-05T23:17:07.889Z,3.27
2018-07-05T23:19:48.220Z,2.77
2018-07-05T23:22:28.513Z,3.57
2018-07-05T23:25:08.653Z,2.40
2018-07-05T23:27:49.033Z,2.97
2018-07-05T23:30:29.303Z,2.77
2018-07-05T23:33:03.549Z,3.33
2018-07-05T23:35:43.722Z,2.80
2018-07-05T23:38:24.065Z,2.87
2018-07-05T23:41:04.274Z,3.00
2018-07-05T23:43:44.593Z,2.70
2018-07-05T23:46:24.922Z,2.70
2018-07-05T23:49:05.050Z,3.17
2018-07-05T23:51:45.213Z,3.03
2018-07-05T23:54:25.541Z,2.70
2018-07-05T23:57:05.822Z,3.00
2018-07-05T23:59:46.136Z,2.53
